Time;durP1;ratioP1;P1;durP2;ratioP2;P2;SDS_P1;SDS_P2;PMS_P1;PMS_P2;Temp;Humidity;BMP_temperature;BMP_pressure;BME280_temperature;BME280_humidity;BME280_pressure;Samples;Min_cycle;Max_cycle;Signal;HPM_P1;HPM_P2
2022/08/11 00:00:00;;;;;;;41.28;39.17;;;;;;;;;;5062764;28;20469;-66
2022/08/11 00:02:48;;;;;;;37.28;35.35;;;;;;;;;;5062058;28;20044;-66
2022/08/11 00:05:16;;;;;;;37.55;35.55;;;;;;;;;;5066953;28;20410;-65
2022/08/11 00:07:49;;;;;;;34.65;32.83;;;;;;;;;;5065545;28;20133;-66
2022/08/11 00:10:25;;;;;;;34.92;33.08;;;;;;;;;;5065483;28;20032;-66
2022/08/11 00:13:00;;;;;;;35.10;33.28;;;;;;;;;;5067784;28;20465;-66
2022/08/11 00:15:37;;;;;;;33.05;31.33;;;;;;;;;;5066193;28;20043;-64
2022/08/11 00:18:03;;;;;;;31.83;30.17;;;;;;;;;;5068698;28;20039;-65
2022/08/11 00:20:35;;;;;;;36.72;34.78;;;;;;;;;;5070428;28;20032;-65
2022/08/11 00:23:13;;;;;;;33.72;31.98;;;;;;;;;;5072954;28;20029;-65
2022/08/11 00:25:41;;;;;;;31.00;29.35;;;;;;;;;;5071558;28;20028;-65
2022/08/11 00:28:22;;;;;;;29.38;27.83;;;;;;;;;;5064158;28;20025;-66
2022/08/11 00:30:49;;;;;;;26.65;25.23;;;;;;;;;;5060829;28;20173;-65
2022/08/11 00:33:16;;;;;;;25.13;23.80;;;;;;;;;;5067271;28;20043;-65
2022/08/11 00:35:42;;;;;;;26.13;24.67;;;;;;;;;;5066513;28;20333;-64
2022/08/11 00:38:10;;;;;;;19.00;17.95;;;;;;;;;;5064774;28;20133;-65
2022/08/11 00:40:42;;;;;;;16.85;15.90;;;;;;;;;;5062207;28;20025;-65
2022/08/11 00:43:20;;;;;;;16.95;15.95;;;;;;;;;;5071047;28;20409;-65
2022/08/11 00:46:08;;;;;;;13.50;12.60;;;;;;;;;;5063913;28;20115;-65
2022/08/11 00:48:52;;;;;;;12.82;12.07;;;;;;;;;;5068050;28;20427;-65
2022/08/11 00:51:23;;;;;;;11.98;11.25;;;;;;;;;;5065848;28;20039;-65
2022/08/11 00:54:18;;;;;;;11.50;10.82;;;;;;;;;;5064953;28;20165;-67
2022/08/11 00:57:02;;;;;;;11.27;10.57;;;;;;;;;;5064119;28;20481;-67
2022/08/11 01:00:08;;;;;;;10.57;9.93;;;;;;;;;;5064759;28;20032;-67
2022/08/11 01:03:04;;;;;;;12.05;11.35;;;;;;;;;;5063152;28;20083;-66
2022/08/11 01:05:44;;;;;;;9.63;9.00;;;;;;;;;;5066141;28;20063;-66
2022/08/11 01:08:29;;;;;;;9.70;9.10;;;;;;;;;;5068281;28;20036;-66
2022/08/11 01:11:21;;;;;;;9.10;8.50;;;;;;;;;;5066111;28;20050;-66
2022/08/11 01:14:21;;;;;;;7.18;6.68;;;;;;;;;;5065405;28;20422;-66
2022/08/11 01:17:08;;;;;;;7.95;7.35;;;;;;;;;;5068501;28;20071;-66
2022/08/11 01:20:01;;;;;;;7.80;7.30;;;;;;;;;;5065121;28;20354;-66
2022/08/11 01:22:59;;;;;;;6.40;6.00;;;;;;;;;;5066388;28;20036;-66
2022/08/11 01:25:43;;;;;;;8.07;7.47;;;;;;;;;;5060288;28;20071;-66
2022/08/11 01:28:31;;;;;;;9.63;8.93;;;;;;;;;;5066453;28;20056;-66
2022/08/11 01:31:17;;;;;;;7.45;6.95;;;;;;;;;;5064722;28;20033;-66
2022/08/11 01:33:58;;;;;;;7.43;6.93;;;;;;;;;;5062986;28;20075;-65
2022/08/11 01:36:39;;;;;;;6.05;5.63;;;;;;;;;;5060979;28;20455;-65
2022/08/11 01:39:17;;;;;;;6.10;5.70;;;;;;;;;;5062599;28;20044;-66
2022/08/11 01:45:06;;;;;;;6.72;6.25;;;;;;;;;;5064076;28;20033;-65
2022/08/11 01:47:52;;;;;;;7.15;6.65;;;;;;;;;;5066626;28;20341;-65
2022/08/11 01:50:32;;;;;;;6.40;5.90;;;;;;;;;;5067450;28;20172;-65
2022/08/11 01:53:03;;;;;;;6.25;5.85;;;;;;;;;;5061822;28;20830;-65
2022/08/11 01:55:43;;;;;;;6.50;6.05;;;;;;;;;;5063556;28;20032;-65
2022/08/11 01:58:15;;;;;;;6.78;6.28;;;;;;;;;;5063880;28;20458;-65
2022/08/11 02:01:17;;;;;;;6.97;6.47;;;;;;;;;;5063936;28;20066;-65
2022/08/11 02:03:54;;;;;;;6.80;6.30;;;;;;;;;;5061880;28;20340;-65
2022/08/11 02:06:56;;;;;;;7.93;7.38;;;;;;;;;;5063470;28;20028;-65
2022/08/11 02:09:38;;;;;;;7.72;7.22;;;;;;;;;;5061510;28;20032;-65
2022/08/11 02:12:15;;;;;;;7.70;7.20;;;;;;;;;;5063281;28;20332;-66
2022/08/11 02:15:13;;;;;;;8.52;8.00;;;;;;;;;;5062386;28;20059;-66
2022/08/11 02:17:57;;;;;;;8.07;7.57;;;;;;;;;;5062753;28;20053;-66
2022/08/11 02:26:17;;;;;;;8.00;7.50;;;;;;;;;;5060663;28;20038;-65
2022/08/11 02:28:54;;;;;;;;;;;;;;;;;;5058961;28;20067;-66
2022/08/11 02:34:23;;;;;;;7.88;7.30;;;;;;;;;;5059208;28;20032;-65
2022/08/11 02:36:59;;;;;;;6.57;6.07;;;;;;;;;;5062682;28;20734;-66
2022/08/11 02:39:38;;;;;;;7.72;7.20;;;;;;;;;;5059506;28;20121;-66
2022/08/11 02:42:22;;;;;;;7.55;7.05;;;;;;;;;;5079303;28;20048;-66
2022/08/11 02:45:15;;;;;;;8.70;8.10;;;;;;;;;;5063974;28;20072;-66
2022/08/11 02:51:13;;;;;;;7.30;6.80;;;;;;;;;;5065545;28;20060;-66
2022/08/11 02:53:57;;;;;;;8.13;7.18;;;;;;;;;;5060863;28;20028;-66
2022/08/11 02:56:34;;;;;;;7.50;7.00;;;;;;;;;;5067858;28;20086;-66
2022/08/11 03:02:15;;;;;;;7.60;7.05;;;;;;;;;;5061823;28;20111;-66
2022/08/11 03:04:58;;;;;;;7.88;7.30;;;;;;;;;;5064564;28;20024;-66
2022/08/11 03:07:40;;;;;;;8.57;7.97;;;;;;;;;;5057060;28;20029;-66
2022/08/11 03:10:22;;;;;;;9.10;8.25;;;;;;;;;;5055607;28;20033;-66
2022/08/11 03:19:07;;;;;;;8.55;7.97;;;;;;;;;;5057396;28;20028;-66
2022/08/11 03:21:46;;;;;;;8.48;7.88;;;;;;;;;;5061648;28;20091;-66
2022/08/11 03:24:23;;;;;;;7.97;7.45;;;;;;;;;;5058343;28;20429;-66
2022/08/11 03:27:09;;;;;;;8.75;8.15;;;;;;;;;;5061927;28;20064;-66
2022/08/11 03:30:05;;;;;;;8.40;7.90;;;;;;;;;;5059306;28;20412;-66
2022/08/11 03:34:01;;;;;;;10.00;9.30;;;;;;;;;;5058371;28;20033;-66
2022/08/11 03:35:42;;;;;;;10.65;9.95;;;;;;;;;;5059343;28;20430;-66
2022/08/11 03:38:13;;;;;;;10.05;9.45;;;;;;;;;;5055996;28;20025;-66
2022/08/11 03:44:06;;;;;;;9.88;9.20;;;;;;;;;;5060227;28;20465;-66
2022/08/11 03:46:44;;;;;;;9.35;8.75;;;;;;;;;;5062180;28;20032;-66
2022/08/11 03:49:46;;;;;;;10.68;10.05;;;;;;;;;;5068011;28;20062;-66
2022/08/11 03:52:26;;;;;;;9.65;9.05;;;;;;;;;;5062247;28;20035;-66
2022/08/11 03:55:16;;;;;;;9.23;8.63;;;;;;;;;;5058862;28;20059;-66
2022/08/11 03:58:15;;;;;;;8.38;7.82;;;;;;;;;;5058566;28;20032;-66
2022/08/11 04:01:20;;;;;;;9.43;8.82;;;;;;;;;;5060518;28;20080;-66
2022/08/11 04:04:23;;;;;;;10.82;10.02;;;;;;;;;;5062721;28;20048;-66
2022/08/11 04:07:18;;;;;;;9.82;9.23;;;;;;;;;;5061983;28;20046;-66
2022/08/11 04:09:53;;;;;;;9.15;8.55;;;;;;;;;;5042997;28;20102;-66
2022/08/11 04:12:28;;;;;;;9.07;8.38;;;;;;;;;;5059117;28;20024;-66
2022/08/11 04:18:42;;;;;;;8.70;8.10;;;;;;;;;;5062046;28;20605;-67
2022/08/11 04:21:45;;;;;;;8.70;8.13;;;;;;;;;;5065797;28;20039;-66
2022/08/11 04:24:26;;;;;;;8.55;7.97;;;;;;;;;;5060990;28;20044;-66
2022/08/11 04:27:10;;;;;;;7.60;7.10;;;;;;;;;;5058721;28;20033;-67
2022/08/11 04:30:03;;;;;;;8.60;8.05;;;;;;;;;;5061540;28;20374;-68
2022/08/11 04:32:35;;;;;;;8.30;7.63;;;;;;;;;;5061286;28;20124;-68
2022/08/11 04:35:19;;;;;;;9.18;8.57;;;;;;;;;;5064295;28;20029;-67
2022/08/11 04:37:53;;;;;;;10.27;9.57;;;;;;;;;;5065088;28;20594;-67
2022/08/11 04:40:36;;;;;;;8.93;8.32;;;;;;;;;;5064811;28;20032;-67
2022/08/11 04:43:24;;;;;;;9.07;8.48;;;;;;;;;;5061768;28;20090;-67
2022/08/11 04:46:12;;;;;;;7.45;6.95;;;;;;;;;;5063497;28;20454;-67
2022/08/11 05:02:23;;;;;;;7.80;7.30;;;;;;;;;;5063091;28;20029;-66
2022/08/11 05:05:30;;;;;;;8.25;7.65;;;;;;;;;;5064347;28;20033;-66
2022/08/11 05:08:26;;;;;;;8.65;8.05;;;;;;;;;;5062949;28;20119;-66
2022/08/11 05:11:07;;;;;;;8.15;7.65;;;;;;;;;;5061414;28;20028;-66
2022/08/11 05:36:47;;;;;;;9.98;9.38;;;;;;;;;;5043294;28;20045;-65
2022/08/11 05:56:20;;;;;;;10.05;9.45;;;;;;;;;;5059122;28;20025;-65
2022/08/11 05:58:50;;;;;;;8.25;7.75;;;;;;;;;;5063769;28;20032;-65
2022/08/11 06:01:24;;;;;;;9.48;8.88;;;;;;;;;;5061352;28;20048;-65
2022/08/11 06:04:13;;;;;;;8.93;8.32;;;;;;;;;;5062551;28;20518;-65
2022/08/11 06:06:46;;;;;;;10.05;9.35;;;;;;;;;;5063590;28;20033;-64
2022/08/11 06:09:13;;;;;;;8.20;7.60;;;;;;;;;;5064271;28;20028;-62
2022/08/11 06:11:41;;;;;;;8.40;7.80;;;;;;;;;;5065600;28;20043;-62
2022/08/11 06:14:09;;;;;;;7.82;7.22;;;;;;;;;;5064217;28;20086;-62
2022/08/11 06:16:36;;;;;;;6.07;5.63;;;;;;;;;;5060771;28;20025;-63
2022/08/11 06:19:03;;;;;;;8.85;8.25;;;;;;;;;;5059362;28;20032;-62
2022/08/11 06:21:33;;;;;;;7.03;6.53;;;;;;;;;;5059199;28;20017;-63
2022/08/11 06:23:59;;;;;;;;;;;;;;;;;;5061566;28;20082;-62
2022/08/11 06:26:24;;;;;;;6.75;6.25;;;;;;;;;;5058087;28;19939;-63
2022/08/11 06:28:50;;;;;;;7.57;7.00;;;;;;;;;;5057657;28;20089;-63
2022/08/11 06:31:19;;;;;;;7.53;7.03;;;;;;;;;;5062927;28;20043;-63
2022/08/11 06:33:53;;;;;;;7.78;7.28;;;;;;;;;;5063008;28;20043;-64
2022/08/11 06:36:37;;;;;;;8.25;7.72;;;;;;;;;;5060878;28;20033;-63
2022/08/11 06:39:21;;;;;;;11.10;10.40;;;;;;;;;;5061949;28;20060;-63
2022/08/11 06:41:59;;;;;;;9.98;9.38;;;;;;;;;;5061866;28;20029;-64
2022/08/11 06:44:38;;;;;;;12.70;11.90;;;;;;;;;;5060081;28;20020;-64
2022/08/11 06:47:08;;;;;;;8.68;8.07;;;;;;;;;;5060519;28;20048;-64
2022/08/11 06:52:37;;;;;;;22.77;21.55;;;;;;;;;;5059162;28;20028;-64
2022/08/11 06:55:10;;;;;;;23.23;21.92;;;;;;;;;;5058326;28;20470;-64
2022/08/11 07:00:29;;;;;;;26.42;25.02;;;;;;;;;;5056442;28;20040;-65
2022/08/11 07:03:09;;;;;;;32.25;30.55;;;;;;;;;;5056734;28;21175;-64
2022/08/11 07:05:44;;;;;;;26.85;25.45;;;;;;;;;;5056975;28;20036;-65
2022/08/11 07:17:48;;;;;;;29.48;27.88;;;;;;;;;;5060689;28;20051;-63
2022/08/11 07:28:57;;;;;;;25.70;24.30;;;;;;;;;;5067188;28;20032;-63
2022/08/11 07:31:31;;;;;;;26.90;25.50;;;;;;;;;;5065374;28;20032;-63
2022/08/11 07:34:26;;;;;;;22.27;20.98;;;;;;;;;;5070126;28;20032;-63
2022/08/11 07:36:57;;;;;;;22.73;21.52;;;;;;;;;;5057543;28;20052;-63
2022/08/11 07:39:43;;;;;;;27.95;26.48;;;;;;;;;;5073189;28;20086;-63
2022/08/11 07:42:12;;;;;;;24.80;23.50;;;;;;;;;;5071414;28;20125;-63
2022/08/11 07:52:54;;;;;;;29.60;28.02;;;;;;;;;;5061558;28;20032;-63
2022/08/11 07:55:24;;;;;;;31.85;30.17;;;;;;;;;;5070263;28;20025;-63
2022/08/11 08:19:53;;;;;;;49.58;46.97;;;;;;;;;;5064126;28;20418;-64
2022/08/11 08:22:20;;;;;;;59.80;56.83;;;;;;;;;;5067778;28;20099;-64
2022/08/11 08:24:46;;;;;;;50.35;47.83;;;;;;;;;;5068631;28;20028;-63
2022/08/11 08:27:13;;;;;;;48.45;45.97;;;;;;;;;;5066951;28;20029;-64
2022/08/11 08:32:26;;;;;;;56.42;53.60;;;;;;;;;;5059439;28;20111;-65
2022/08/11 08:34:57;;;;;;;57.40;54.53;;;;;;;;;;5062417;28;20629;-64
2022/08/11 08:37:25;;;;;;;56.80;53.92;;;;;;;;;;5059388;28;20137;-64
2022/08/11 08:39:52;;;;;;;66.15;62.75;;;;;;;;;;5065459;28;20081;-63
2022/08/11 08:42:22;;;;;;;68.57;65.18;;;;;;;;;;5070270;28;20043;-63
2022/08/11 08:44:55;;;;;;;71.05;67.55;;;;;;;;;;5063322;28;20025;-64
2022/08/11 08:47:23;;;;;;;78.43;74.55;;;;;;;;;;5062259;28;20031;-63
2022/08/11 08:49:52;;;;;;;78.97;75.05;;;;;;;;;;5064324;28;20024;-63
2022/08/11 08:52:22;;;;;;;80.53;76.55;;;;;;;;;;5058621;28;20024;-64
2022/08/11 08:54:52;;;;;;;76.10;72.35;;;;;;;;;;5063321;28;20038;-63
2022/08/11 08:57:21;;;;;;;86.88;82.60;;;;;;;;;;5065750;28;20313;-63
2022/08/11 08:59:48;;;;;;;85.25;81.07;;;;;;;;;;5061332;28;20469;-64
2022/08/11 09:02:14;;;;;;;78.53;74.65;;;;;;;;;;5062036;28;20114;-64
2022/08/11 09:04:44;;;;;;;73.90;69.95;;;;;;;;;;5061633;28;20033;-64
2022/08/11 09:07:12;;;;;;;72.75;69.05;;;;;;;;;;5058712;28;20028;-63
2022/08/11 09:09:42;;;;;;;71.43;67.82;;;;;;;;;;5062189;28;20596;-64
2022/08/11 09:12:09;;;;;;;;;;;;;;;;;;5062252;28;20438;-64
2022/08/11 09:17:22;;;;;;;94.53;89.82;;;;;;;;;;5065981;28;20043;-64
2022/08/11 09:19:57;;;;;;;100.03;95.13;;;;;;;;;;5063858;28;20335;-63
2022/08/11 09:27:55;;;;;;;98.70;93.72;;;;;;;;;;5065763;28;20474;-64
2022/08/11 09:30:24;;;;;;;90.32;85.88;;;;;;;;;;5062621;28;20063;-64
2022/08/11 09:32:56;;;;;;;111.57;106.03;;;;;;;;;;5062322;28;20053;-63
2022/08/11 09:35:24;;;;;;;112.47;106.93;;;;;;;;;;5061443;28;20071;-63
2022/08/11 09:40:35;;;;;;;93.35;88.75;;;;;;;;;;5061528;28;20033;-63
2022/08/11 09:45:51;;;;;;;104.25;98.90;;;;;;;;;;5066157;28;20543;-63
2022/08/11 09:48:22;;;;;;;111.75;106.25;;;;;;;;;;5062425;28;20041;-61
2022/08/11 09:50:50;;;;;;;125.60;119.40;;;;;;;;;;5060700;28;20494;-62
2022/08/11 09:53:16;;;;;;;120.32;114.32;;;;;;;;;;5064124;28;20025;-62
2022/08/11 09:55:44;;;;;;;138.70;131.88;;;;;;;;;;5066419;28;20032;-62
2022/08/11 09:58:12;;;;;;;129.88;123.45;;;;;;;;;;5068482;28;20029;-61
2022/08/11 10:00:41;;;;;;;137.90;131.07;;;;;;;;;;5062430;28;20075;-62
2022/08/11 10:03:10;;;;;;;126.15;119.93;;;;;;;;;;5065730;28;20160;-61
2022/08/11 10:08:28;;;;;;;127.70;121.33;;;;;;;;;;5044002;28;20127;-62
2022/08/11 10:10:54;;;;;;;122.47;116.38;;;;;;;;;;5059942;28;20270;-62
2022/08/11 10:13:24;;;;;;;132.05;125.55;;;;;;;;;;5063673;28;20375;-62
2022/08/11 10:15:53;;;;;;;113.72;108.10;;;;;;;;;;5064068;28;20037;-61
2022/08/11 10:18:41;;;;;;;116.60;110.90;;;;;;;;;;5064669;28;20051;-62
2022/08/11 10:21:28;;;;;;;122.75;116.72;;;;;;;;;;5061023;28;20119;-62
2022/08/11 10:26:53;;;;;;;114.13;108.53;;;;;;;;;;5060662;28;20052;-62
2022/08/11 10:34:49;;;;;;;138.10;131.23;;;;;;;;;;5063250;28;20029;-60
2022/08/11 10:37:18;;;;;;;157.27;149.50;;;;;;;;;;5062369;28;20028;-62
2022/08/11 10:39:44;;;;;;;159.00;151.13;;;;;;;;;;5060542;28;20062;-62
2022/08/11 10:44:57;;;;;;;189.13;179.73;;;;;;;;;;5062065;28;20482;-61
2022/08/11 10:47:37;;;;;;;212.63;201.98;;;;;;;;;;5063327;28;20054;-62
2022/08/11 10:58:47;;;;;;;235.02;223.50;;;;;;;;;;5063092;28;20096;-62
2022/08/11 11:01:14;;;;;;;263.60;250.63;;;;;;;;;;5060804;28;20039;-63
2022/08/11 11:03:41;;;;;;;209.15;198.85;;;;;;;;;;5059623;28;20462;-62
2022/08/11 11:06:34;;;;;;;247.13;235.00;;;;;;;;;;5059324;28;20579;-63
2022/08/11 11:09:09;;;;;;;297.73;283.00;;;;;;;;;;5061724;28;20098;-62
2022/08/11 11:19:53;;;;;;;333.83;316.98;;;;;;;;;;5060099;28;20139;-63
2022/08/11 11:22:38;;;;;;;282.35;268.38;;;;;;;;;;5057602;28;20044;-63
2022/08/11 11:25:16;;;;;;;300.25;285.25;;;;;;;;;;5059360;28;20115;-62
2022/08/11 11:27:58;;;;;;;348.55;330.85;;;;;;;;;;5059548;28;20518;-62
2022/08/11 11:30:31;;;;;;;301.48;286.45;;;;;;;;;;5056928;28;20040;-63
2022/08/11 11:33:10;;;;;;;328.00;311.42;;;;;;;;;;5064142;28;20121;-61
2022/08/11 11:36:06;;;;;;;388.30;368.38;;;;;;;;;;5057971;28;20068;-62
2022/08/11 11:38:32;;;;;;;291.42;276.83;;;;;;;;;;5055200;28;20462;-62
2022/08/11 11:43:43;;;;;;;367.25;348.45;;;;;;;;;;5057381;28;20025;-61
2022/08/11 11:46:09;;;;;;;315.27;299.38;;;;;;;;;;5057234;28;20071;-60
2022/08/11 11:48:35;;;;;;;385.33;365.58;;;;;;;;;;5059434;28;20409;-62
2022/08/11 11:51:01;;;;;;;372.88;353.73;;;;;;;;;;5059319;28;20033;-62
2022/08/11 11:53:27;;;;;;;363.77;345.10;;;;;;;;;;5059978;28;20024;-60
2022/08/11 11:55:54;;;;;;;375.92;356.63;;;;;;;;;;5060754;28;20519;-63
2022/08/11 12:01:18;;;;;;;355.85;337.73;;;;;;;;;;5057068;28;20033;-59
2022/08/11 12:03:49;;;;;;;;;;;;;;;;;;5057640;28;20429;-63
2022/08/11 12:06:17;;;;;;;370.15;351.30;;;;;;;;;;5063736;28;19923;-62
2022/08/11 12:08:46;;;;;;;381.35;361.75;;;;;;;;;;5062520;28;20048;-62
2022/08/11 12:14:05;;;;;;;383.75;364.05;;;;;;;;;;5045640;28;20048;-63
2022/08/11 12:16:32;;;;;;;380.38;360.80;;;;;;;;;;5057728;28;20028;-62
2022/08/11 12:18:59;;;;;;;389.42;369.35;;;;;;;;;;5061922;28;20131;-61
2022/08/11 12:21:28;;;;;;;385.15;365.38;;;;;;;;;;5060946;28;20111;-63
2022/08/11 12:29:26;;;;;;;403.65;382.73;;;;;;;;;;5060218;28;20032;-63
2022/08/11 12:31:53;;;;;;;402.13;381.30;;;;;;;;;;5062676;28;20059;-62
2022/08/11 12:34:19;;;;;;;396.67;376.35;;;;;;;;;;5061496;28;20024;-62
2022/08/11 12:36:58;;;;;;;364.45;345.83;;;;;;;;;;5058655;28;20039;-63
2022/08/11 12:53:28;;;;;;;368.15;349.27;;;;;;;;;;5064317;28;20020;-63
2022/08/11 12:58:45;;;;;;;389.38;369.38;;;;;;;;;;5065361;28;20025;-61
2022/08/11 13:06:41;;;;;;;372.02;352.85;;;;;;;;;;5065282;28;20460;-64
2022/08/11 13:09:08;;;;;;;373.58;354.35;;;;;;;;;;5061276;28;20041;-64
2022/08/11 13:14:20;;;;;;;378.00;358.60;;;;;;;;;;5064593;28;20205;-63
2022/08/11 13:19:33;;;;;;;359.50;341.25;;;;;;;;;;5058952;28;20075;-63
2022/08/11 13:21:59;;;;;;;390.25;370.15;;;;;;;;;;5057886;28;20048;-64
2022/08/11 13:24:27;;;;;;;365.35;346.80;;;;;;;;;;5065514;28;20077;-62
2022/08/11 13:26:53;;;;;;;377.33;358.08;;;;;;;;;;5065423;28;20127;-63
2022/08/11 13:29:27;;;;;;;353.35;335.48;;;;;;;;;;5065929;28;20118;-63
2022/08/11 13:31:55;;;;;;;357.65;339.58;;;;;;;;;;5061849;28;20040;-64
2022/08/11 13:34:22;;;;;;;405.60;384.48;;;;;;;;;;5062361;28;20024;-65
2022/08/11 13:36:50;;;;;;;366.20;347.52;;;;;;;;;;5059493;28;20463;-66
2022/08/11 13:39:17;;;;;;;344.30;326.98;;;;;;;;;;5060962;28;20028;-64
2022/08/11 13:41:44;;;;;;;338.38;321.33;;;;;;;;;;5060774;28;20020;-63
2022/08/11 13:44:16;;;;;;;317.08;301.27;;;;;;;;;;5061700;28;20370;-62
2022/08/11 13:46:42;;;;;;;300.95;286.10;;;;;;;;;;5058582;28;20106;-63
2022/08/11 13:49:08;;;;;;;334.95;318.17;;;;;;;;;;5061834;28;20021;-65
2022/08/11 13:51:34;;;;;;;328.65;312.23;;;;;;;;;;5061734;28;20021;-62
2022/08/11 13:54:03;;;;;;;317.42;301.60;;;;;;;;;;5056968;28;20036;-65
2022/08/11 13:56:30;;;;;;;336.23;319.25;;;;;;;;;;5058617;28;20044;-63
2022/08/11 13:58:57;;;;;;;382.13;362.48;;;;;;;;;;5060852;28;20044;-64
2022/08/11 14:01:27;;;;;;;295.00;280.42;;;;;;;;;;5061952;28;20032;-63
2022/08/11 14:03:53;;;;;;;312.23;296.65;;;;;;;;;;5062621;28;20032;-64
2022/08/11 14:06:20;;;;;;;310.88;295.48;;;;;;;;;;5056162;28;20024;-65
2022/08/11 14:08:48;;;;;;;254.95;242.48;;;;;;;;;;5059327;28;20549;-65
2022/08/11 14:14:03;;;;;;;265.92;252.88;;;;;;;;;;5060139;28;20024;-64
2022/08/11 14:16:32;;;;;;;271.00;257.75;;;;;;;;;;5057190;28;20071;-65
2022/08/11 14:19:02;;;;;;;258.02;245.38;;;;;;;;;;5058342;28;20440;-62
2022/08/11 14:24:17;;;;;;;218.38;207.70;;;;;;;;;;5061034;28;20028;-63
2022/08/11 14:26:44;;;;;;;228.40;217.25;;;;;;;;;;5061452;28;20035;-63
2022/08/11 14:29:13;;;;;;;275.48;261.92;;;;;;;;;;5029202;28;20048;-63
2022/08/11 14:31:43;;;;;;;;;;;;;;;;;;5059861;28;20381;-63
2022/08/11 14:34:13;;;;;;;242.38;230.43;;;;;;;;;;5059574;28;19943;-66
2022/08/11 14:36:41;;;;;;;217.38;206.70;;;;;;;;;;5061169;28;20032;-62
2022/08/11 14:39:11;;;;;;;211.05;200.75;;;;;;;;;;5061917;28;20036;-62
2022/08/11 14:47:13;;;;;;;226.18;215.13;;;;;;;;;;5062522;28;20040;-62
2022/08/11 14:49:40;;;;;;;330.42;313.95;;;;;;;;;;5058397;28;20119;-63
2022/08/11 14:52:14;;;;;;;196.55;186.90;;;;;;;;;;5065187;28;20047;-62
2022/08/11 14:57:30;;;;;;;180.77;171.88;;;;;;;;;;5060667;28;20036;-61
2022/08/11 14:59:58;;;;;;;200.23;190.43;;;;;;;;;;5064566;28;20116;-63
2022/08/11 15:05:08;;;;;;;269.13;256.00;;;;;;;;;;5062178;28;20032;-62
2022/08/11 15:07:34;;;;;;;228.40;217.23;;;;;;;;;;5060517;28;20043;-62
2022/08/11 15:10:03;;;;;;;190.65;181.27;;;;;;;;;;5066967;28;20037;-62
2022/08/11 15:12:30;;;;;;;230.85;219.55;;;;;;;;;;5063172;28;20060;-63
2022/08/11 15:17:42;;;;;;;228.20;217.10;;;;;;;;;;5065453;28;20047;-62
2022/08/11 15:25:47;;;;;;;238.48;226.85;;;;;;;;;;5061044;28;20032;-61
2022/08/11 15:45:46;;;;;;;231.15;219.85;;;;;;;;;;5066102;28;20032;-63
2022/08/11 15:48:10;;;;;;;254.32;241.88;;;;;;;;;;5062360;28;20104;-62
2022/08/11 15:50:39;;;;;;;255.00;242.57;;;;;;;;;;5064854;28;20017;-63
2022/08/11 15:53:24;;;;;;;270.67;257.45;;;;;;;;;;5070382;28;20341;-63
2022/08/11 15:55:50;;;;;;;213.52;203.07;;;;;;;;;;5070671;28;20421;-63
2022/08/11 16:04:11;;;;;;;231.10;219.82;;;;;;;;;;5063992;28;20024;-62
2022/08/11 16:06:41;;;;;;;251.48;239.25;;;;;;;;;;5064940;28;20094;-62
2022/08/11 16:09:08;;;;;;;221.25;210.45;;;;;;;;;;5064176;28;20369;-62
2022/08/11 16:11:35;;;;;;;255.50;242.98;;;;;;;;;;5068314;28;20025;-62
2022/08/11 16:16:51;;;;;;;250.43;238.25;;;;;;;;;;5066784;28;20468;-62
2022/08/11 16:19:18;;;;;;;239.70;228.05;;;;;;;;;;5068638;28;20106;-62
2022/08/11 16:21:49;;;;;;;251.00;238.77;;;;;;;;;;5064924;28;20028;-60
2022/08/11 16:24:16;;;;;;;238.07;226.43;;;;;;;;;;5058653;28;20104;-62
2022/08/11 16:26:43;;;;;;;219.30;208.63;;;;;;;;;;5067378;28;20507;-62
2022/08/11 16:29:10;;;;;;;272.35;258.98;;;;;;;;;;5063538;28;20370;-62
2022/08/11 16:31:37;;;;;;;277.73;264.15;;;;;;;;;;5061049;28;20094;-62
2022/08/11 16:34:04;;;;;;;257.80;245.23;;;;;;;;;;5065964;28;20086;-61
2022/08/11 16:39:18;;;;;;;315.70;299.98;;;;;;;;;;5065440;28;20032;-62
2022/08/11 16:47:18;;;;;;;289.02;274.80;;;;;;;;;;5072088;28;20051;-62
2022/08/11 16:49:51;;;;;;;353.77;335.77;;;;;;;;;;5064113;28;20437;-62
2022/08/11 16:52:17;;;;;;;338.05;321.10;;;;;;;;;;5067407;28;20032;-62
2022/08/11 16:54:42;;;;;;;321.58;305.58;;;;;;;;;;5069860;28;20032;-63
2022/08/11 17:00:03;;;;;;;281.80;267.90;;;;;;;;;;5064756;28;20028;-63
2022/08/11 17:13:50;;;;;;;278.58;264.85;;;;;;;;;;5060492;28;20032;-61
2022/08/11 17:16:22;;;;;;;305.85;290.77;;;;;;;;;;5063749;28;20027;-61
2022/08/11 17:18:55;;;;;;;297.33;282.67;;;;;;;;;;5058425;28;20470;-62
2022/08/11 17:21:25;;;;;;;282.27;268.38;;;;;;;;;;5061848;28;20039;-61
2022/08/11 17:23:53;;;;;;;296.02;281.55;;;;;;;;;;5057431;28;20040;-61
2022/08/11 17:26:53;;;;;;;320.40;304.50;;;;;;;;;;5065757;28;20033;-61
2022/08/11 17:29:19;;;;;;;279.27;265.55;;;;;;;;;;5064034;28;20039;-61
2022/08/11 17:37:18;;;;;;;304.50;289.30;;;;;;;;;;5061831;28;20032;-61
2022/08/11 17:39:45;;;;;;;331.60;314.90;;;;;;;;;;5065139;28;20111;-62
2022/08/11 17:50:27;;;;;;;298.63;283.80;;;;;;;;;;5058972;28;20409;-63
2022/08/11 18:01:10;;;;;;;339.52;322.52;;;;;;;;;;5063675;28;20123;-62
2022/08/11 18:03:39;;;;;;;348.65;331.15;;;;;;;;;;5063250;28;20146;-63
2022/08/11 18:06:07;;;;;;;336.08;319.25;;;;;;;;;;5061574;28;20086;-62
